sensor_id;sensor_type;location;lat;lon;timestamp;pressure;altitude;pressure_sealevel;temperature;humidity
74578;BME280;75151;49.086;33.418;2024-03-25T00:00:22;99332.75;;;4.14;51.06
74578;BME280;75151;49.086;33.418;2024-03-25T00:02:51;99324.72;;;5.28;49.75
74578;BME280;75151;49.086;33.418;2024-03-25T00:05:17;99336.69;;;4.79;50.35
74578;BME280;75151;49.086;33.418;2024-03-25T00:07:48;99321.28;;;4.74;50.09
74578;BME280;75151;49.086;33.418;2024-03-25T00:10:14;99324.03;;;4.74;51.30
74578;BME280;75151;49.086;33.418;2024-03-25T00:12:40;99317.75;;;5.19;49.07
74578;BME280;75151;49.086;33.418;2024-03-25T00:15:06;99321.44;;;4.90;50.04
74578;BME280;75151;49.086;33.418;2024-03-25T00:17:33;99320.28;;;4.79;50.96
74578;BME280;75151;49.086;33.418;2024-03-25T00:19:59;99309.13;;;5.53;49.26
74578;BME280;75151;49.086;33.418;2024-03-25T00:22:25;99301.19;;;5.03;49.07
74578;BME280;75151;49.086;33.418;2024-03-25T00:24:51;99292.59;;;4.68;50.25
74578;BME280;75151;49.086;33.418;2024-03-25T00:27:17;99296.66;;;4.95;50.91
74578;BME280;75151;49.086;33.418;2024-03-25T00:29:43;99298.59;;;4.62;50.67
74578;BME280;75151;49.086;33.418;2024-03-25T00:32:09;99293.91;;;4.95;49.61
74578;BME280;75151;49.086;33.418;2024-03-25T00:34:36;99297.22;;;5.13;50.72
74578;BME280;75151;49.086;33.418;2024-03-25T00:37:03;99303.59;;;4.92;49.46
74578;BME280;75151;49.086;33.418;2024-03-25T00:39:29;99310.34;;;5.19;49.17
74578;BME280;75151;49.086;33.418;2024-03-25T00:41:58;99309.78;;;5.38;49.37
74578;BME280;75151;49.086;33.418;2024-03-25T00:44:23;99302.16;;;5.43;49.59
74578;BME280;75151;49.086;33.418;2024-03-25T00:46:49;99311.38;;;5.39;49.71
74578;BME280;75151;49.086;33.418;2024-03-25T00:49:15;99311.28;;;4.04;52.16
74578;BME280;75151;49.086;33.418;2024-03-25T00:51:41;99311.72;;;5.25;49.06
74578;BME280;75151;49.086;33.418;2024-03-25T00:54:06;99302.81;;;4.59;50.51
74578;BME280;75151;49.086;33.418;2024-03-25T00:56:33;99298.03;;;4.56;52.10
74578;BME280;75151;49.086;33.418;2024-03-25T00:58:59;99296.97;;;4.81;50.62
74578;BME280;75151;49.086;33.418;2024-03-25T01:01:31;99293.56;;;4.52;52.22
74578;BME280;75151;49.086;33.418;2024-03-25T01:03:58;99284.88;;;4.82;50.86
74578;BME280;75151;49.086;33.418;2024-03-25T01:06:24;99286.88;;;4.61;50.26
74578;BME280;75151;49.086;33.418;2024-03-25T01:08:50;99288.66;;;4.25;51.57
74578;BME280;75151;49.086;33.418;2024-03-25T01:11:17;99285.34;;;5.08;50.26
74578;BME280;75151;49.086;33.418;2024-03-25T01:13:43;99282.41;;;4.03;52.77
74578;BME280;75151;49.086;33.418;2024-03-25T01:16:09;99279.19;;;4.99;51.27
74578;BME280;75151;49.086;33.418;2024-03-25T01:18:35;99282.78;;;4.35;52.04
74578;BME280;75151;49.086;33.418;2024-03-25T01:21:01;99289.88;;;4.80;50.83
74578;BME280;75151;49.086;33.418;2024-03-25T01:23:27;99284.22;;;4.97;50.84
74578;BME280;75151;49.086;33.418;2024-03-25T01:25:53;99279.53;;;4.21;52.73
74578;BME280;75151;49.086;33.418;2024-03-25T01:28:18;99280.63;;;4.73;52.57
74578;BME280;75151;49.086;33.418;2024-03-25T01:30:44;99280.88;;;3.94;53.01
74578;BME280;75151;49.086;33.418;2024-03-25T01:33:10;99274.56;;;4.55;51.95
74578;BME280;75151;49.086;33.418;2024-03-25T01:35:36;99274.47;;;4.10;53.44
74578;BME280;75151;49.086;33.418;2024-03-25T01:38:02;99276.06;;;3.70;54.42
74578;BME280;75151;49.086;33.418;2024-03-25T01:40:29;99274.22;;;3.83;53.73
74578;BME280;75151;49.086;33.418;2024-03-25T01:42:59;99279.06;;;3.98;54.03
74578;BME280;75151;49.086;33.418;2024-03-25T01:45:28;99274.13;;;4.65;52.28
74578;BME280;75151;49.086;33.418;2024-03-25T01:48:03;99264.41;;;3.82;54.18
74578;BME280;75151;49.086;33.418;2024-03-25T01:50:33;99272.13;;;4.00;53.82
74578;BME280;75151;49.086;33.418;2024-03-25T01:52:58;99279.00;;;3.86;54.49
74578;BME280;75151;49.086;33.418;2024-03-25T01:55:26;99281.72;;;4.06;53.75
74578;BME280;75151;49.086;33.418;2024-03-25T01:57:53;99279.44;;;4.50;52.61
74578;BME280;75151;49.086;33.418;2024-03-25T02:00:19;99280.84;;;4.68;53.23
74578;BME280;75151;49.086;33.418;2024-03-25T02:02:46;99275.50;;;4.06;53.51
74578;BME280;75151;49.086;33.418;2024-03-25T02:05:14;99276.63;;;4.58;53.78
74578;BME280;75151;49.086;33.418;2024-03-25T02:07:40;99265.19;;;5.01;52.99
74578;BME280;75151;49.086;33.418;2024-03-25T02:10:08;99280.81;;;4.56;52.65
74578;BME280;75151;49.086;33.418;2024-03-25T02:12:43;99275.06;;;4.37;53.40
74578;BME280;75151;49.086;33.418;2024-03-25T02:15:10;99272.44;;;4.19;53.78
74578;BME280;75151;49.086;33.418;2024-03-25T02:17:36;99272.88;;;4.30;53.04
74578;BME280;75151;49.086;33.418;2024-03-25T02:20:03;99273.84;;;4.46;53.74
74578;BME280;75151;49.086;33.418;2024-03-25T02:22:29;99266.53;;;4.17;54.13
74578;BME280;75151;49.086;33.418;2024-03-25T02:24:57;99266.84;;;3.83;54.93
74578;BME280;75151;49.086;33.418;2024-03-25T02:27:25;99268.31;;;4.67;53.49
74578;BME280;75151;49.086;33.418;2024-03-25T02:29:51;99271.09;;;4.79;51.42
74578;BME280;75151;49.086;33.418;2024-03-25T02:32:17;99275.63;;;3.89;54.37
74578;BME280;75151;49.086;33.418;2024-03-25T02:34:46;99268.38;;;4.91;53.00
74578;BME280;75151;49.086;33.418;2024-03-25T02:37:13;99261.59;;;5.57;51.33
74578;BME280;75151;49.086;33.418;2024-03-25T02:39:39;99262.94;;;5.27;51.87
74578;BME280;75151;49.086;33.418;2024-03-25T02:42:05;99254.66;;;4.67;51.48
74578;BME280;75151;49.086;33.418;2024-03-25T02:44:31;99264.75;;;5.23;50.60
74578;BME280;75151;49.086;33.418;2024-03-25T02:46:58;99264.84;;;3.72;54.17
74578;BME280;75151;49.086;33.418;2024-03-25T02:49:24;99272.09;;;4.62;53.31
74578;BME280;75151;49.086;33.418;2024-03-25T02:51:49;99266.06;;;3.95;54.03
74578;BME280;75151;49.086;33.418;2024-03-25T02:54:15;99266.41;;;3.93;54.77
74578;BME280;75151;49.086;33.418;2024-03-25T02:56:43;99268.16;;;3.98;54.00
74578;BME280;75151;49.086;33.418;2024-03-25T02:59:09;99269.81;;;3.70;54.55
74578;BME280;75151;49.086;33.418;2024-03-25T03:01:35;99269.47;;;4.66;53.44
74578;BME280;75151;49.086;33.418;2024-03-25T03:04:01;99268.31;;;4.67;53.99
74578;BME280;75151;49.086;33.418;2024-03-25T03:06:26;99268.38;;;4.46;54.01
74578;BME280;75151;49.086;33.418;2024-03-25T03:08:52;99266.00;;;4.24;53.11
74578;BME280;75151;49.086;33.418;2024-03-25T03:11:18;99271.13;;;4.05;53.55
74578;BME280;75151;49.086;33.418;2024-03-25T03:13:44;99263.69;;;4.79;53.80
74578;BME280;75151;49.086;33.418;2024-03-25T03:16:10;99269.31;;;3.47;54.60
74578;BME280;75151;49.086;33.418;2024-03-25T03:18:35;99271.28;;;3.67;54.31
74578;BME280;75151;49.086;33.418;2024-03-25T03:21:01;99277.94;;;3.99;56.34
74578;BME280;75151;49.086;33.418;2024-03-25T03:23:27;99281.03;;;4.95;53.41
74578;BME280;75151;49.086;33.418;2024-03-25T03:25:52;99284.94;;;5.31;50.68
74578;BME280;75151;49.086;33.418;2024-03-25T03:28:18;99283.69;;;4.06;53.64
74578;BME280;75151;49.086;33.418;2024-03-25T03:30:44;99282.06;;;3.35;54.66
74578;BME280;75151;49.086;33.418;2024-03-25T03:33:10;99281.03;;;3.68;54.53
74578;BME280;75151;49.086;33.418;2024-03-25T03:35:36;99281.06;;;4.09;52.75
74578;BME280;75151;49.086;33.418;2024-03-25T03:38:02;99288.47;;;4.62;52.33
74578;BME280;75151;49.086;33.418;2024-03-25T03:40:29;99290.50;;;3.91;55.09
74578;BME280;75151;49.086;33.418;2024-03-25T03:42:55;99290.16;;;3.72;54.79
74578;BME280;75151;49.086;33.418;2024-03-25T03:45:24;99293.19;;;4.00;55.61
74578;BME280;75151;49.086;33.418;2024-03-25T03:47:50;99296.63;;;3.68;54.27
74578;BME280;75151;49.086;33.418;2024-03-25T03:50:16;99291.13;;;3.97;54.78
74578;BME280;75151;49.086;33.418;2024-03-25T03:52:42;99294.97;;;4.16;54.16
74578;BME280;75151;49.086;33.418;2024-03-25T03:55:09;99295.78;;;4.70;53.02
74578;BME280;75151;49.086;33.418;2024-03-25T03:57:35;99293.31;;;4.77;53.43
74578;BME280;75151;49.086;33.418;2024-03-25T04:00:01;99288.44;;;3.68;54.67
74578;BME280;75151;49.086;33.418;2024-03-25T04:02:28;99280.06;;;3.93;53.89
74578;BME280;75151;49.086;33.418;2024-03-25T04:04:56;99280.47;;;3.83;55.01
74578;BME280;75151;49.086;33.418;2024-03-25T04:07:22;99273.19;;;3.87;56.26
74578;BME280;75151;49.086;33.418;2024-03-25T04:09:55;99267.88;;;3.70;55.66
74578;BME280;75151;49.086;33.418;2024-03-25T04:12:20;99262.00;;;4.01;54.04
74578;BME280;75151;49.086;33.418;2024-03-25T04:14:47;99262.28;;;3.67;55.83
74578;BME280;75151;49.086;33.418;2024-03-25T04:17:14;99266.81;;;5.02;53.17
74578;BME280;75151;49.086;33.418;2024-03-25T04:19:41;99260.09;;;4.55;52.80
74578;BME280;75151;49.086;33.418;2024-03-25T04:22:07;99259.50;;;3.75;53.57
74578;BME280;75151;49.086;33.418;2024-03-25T04:24:32;99250.88;;;3.44;57.03
74578;BME280;75151;49.086;33.418;2024-03-25T04:27:00;99243.91;;;4.17;54.86
74578;BME280;75151;49.086;33.418;2024-03-25T04:29:25;99247.56;;;3.80;54.43
74578;BME280;75151;49.086;33.418;2024-03-25T04:31:51;99247.34;;;4.26;53.77
74578;BME280;75151;49.086;33.418;2024-03-25T04:34:17;99249.72;;;4.48;52.86
74578;BME280;75151;49.086;33.418;2024-03-25T04:36:42;99254.41;;;4.27;53.54
74578;BME280;75151;49.086;33.418;2024-03-25T04:39:08;99258.78;;;3.66;56.61
74578;BME280;75151;49.086;33.418;2024-03-25T04:41:34;99250.88;;;4.59;53.32
74578;BME280;75151;49.086;33.418;2024-03-25T04:43:59;99250.34;;;4.66;53.51
74578;BME280;75151;49.086;33.418;2024-03-25T04:46:25;99253.59;;;4.59;54.02
74578;BME280;75151;49.086;33.418;2024-03-25T04:48:51;99260.03;;;3.69;56.48
74578;BME280;75151;49.086;33.418;2024-03-25T04:51:16;99268.34;;;4.13;54.49
74578;BME280;75151;49.086;33.418;2024-03-25T04:53:42;99274.69;;;3.35;57.16
74578;BME280;75151;49.086;33.418;2024-03-25T04:56:08;99281.59;;;3.33;57.70
74578;BME280;75151;49.086;33.418;2024-03-25T04:58:33;99293.66;;;3.81;56.33
74578;BME280;75151;49.086;33.418;2024-03-25T05:00:59;99301.19;;;3.26;58.12
74578;BME280;75151;49.086;33.418;2024-03-25T05:03:25;99298.63;;;3.59;56.94
74578;BME280;75151;49.086;33.418;2024-03-25T05:05:50;99300.16;;;3.68;55.58
74578;BME280;75151;49.086;33.418;2024-03-25T05:08:16;99304.00;;;3.96;56.68
74578;BME280;75151;49.086;33.418;2024-03-25T05:10:42;99299.91;;;4.23;56.76
74578;BME280;75151;49.086;33.418;2024-03-25T05:13:07;99299.91;;;3.32;56.94
74578;BME280;75151;49.086;33.418;2024-03-25T05:15:33;99310.13;;;3.35;56.41
74578;BME280;75151;49.086;33.418;2024-03-25T05:17:58;99313.16;;;4.12;55.95
74578;BME280;75151;49.086;33.418;2024-03-25T05:20:24;99316.72;;;4.34;55.80
74578;BME280;75151;49.086;33.418;2024-03-25T05:22:52;99318.06;;;3.78;56.73
74578;BME280;75151;49.086;33.418;2024-03-25T05:25:17;99323.31;;;3.62;56.23
74578;BME280;75151;49.086;33.418;2024-03-25T05:27:43;99324.59;;;3.27;56.69
74578;BME280;75151;49.086;33.418;2024-03-25T05:30:09;99323.91;;;3.09;57.96
74578;BME280;75151;49.086;33.418;2024-03-25T05:32:35;99325.19;;;3.70;57.18
74578;BME280;75151;49.086;33.418;2024-03-25T05:35:01;99320.50;;;3.79;56.96
74578;BME280;75151;49.086;33.418;2024-03-25T05:37:26;99327.75;;;4.16;55.28
74578;BME280;75151;49.086;33.418;2024-03-25T05:39:52;99331.09;;;4.01;55.89
74578;BME280;75151;49.086;33.418;2024-03-25T05:42:18;99329.69;;;3.95;55.37
74578;BME280;75151;49.086;33.418;2024-03-25T05:44:45;99314.66;;;4.31;57.19
74578;BME280;75151;49.086;33.418;2024-03-25T05:47:11;99319.25;;;4.71;53.41
74578;BME280;75151;49.086;33.418;2024-03-25T05:49:37;99312.25;;;4.94;55.04
74578;BME280;75151;49.086;33.418;2024-03-25T05:52:03;99304.75;;;4.59;54.91
74578;BME280;75151;49.086;33.418;2024-03-25T05:54:28;99299.31;;;5.64;52.71
74578;BME280;75151;49.086;33.418;2024-03-25T05:56:54;99303.38;;;5.09;52.75
74578;BME280;75151;49.086;33.418;2024-03-25T05:59:20;99290.06;;;5.32;52.72
74578;BME280;75151;49.086;33.418;2024-03-25T06:01:45;99295.75;;;5.87;50.59
74578;BME280;75151;49.086;33.418;2024-03-25T06:04:11;99302.06;;;6.43;48.32
74578;BME280;75151;49.086;33.418;2024-03-25T06:06:37;99302.53;;;4.97;51.58
74578;BME280;75151;49.086;33.418;2024-03-25T06:09:02;99309.56;;;5.31;52.28
74578;BME280;75151;49.086;33.418;2024-03-25T06:11:28;99321.75;;;4.64;53.35
74578;BME280;75151;49.086;33.418;2024-03-25T06:13:54;99323.78;;;5.24;52.57
74578;BME280;75151;49.086;33.418;2024-03-25T06:16:19;99326.06;;;5.22;53.13
74578;BME280;75151;49.086;33.418;2024-03-25T06:18:45;99322.19;;;5.11;53.12
74578;BME280;75151;49.086;33.418;2024-03-25T06:21:11;99323.38;;;4.89;53.73
74578;BME280;75151;49.086;33.418;2024-03-25T06:23:38;99331.47;;;4.86;54.33
74578;BME280;75151;49.086;33.418;2024-03-25T06:26:03;99324.41;;;5.66;51.64
74578;BME280;75151;49.086;33.418;2024-03-25T06:28:29;99336.63;;;4.13;55.10
74578;BME280;75151;49.086;33.418;2024-03-25T06:30:55;99334.13;;;4.94;54.92
74578;BME280;75151;49.086;33.418;2024-03-25T06:33:39;99343.56;;;5.66;53.14
74578;BME280;75151;49.086;33.418;2024-03-25T06:36:23;99338.03;;;4.73;54.44
74578;BME280;75151;49.086;33.418;2024-03-25T06:38:49;99338.78;;;4.29;54.93
74578;BME280;75151;49.086;33.418;2024-03-25T06:41:14;99337.75;;;4.12;54.66
74578;BME280;75151;49.086;33.418;2024-03-25T06:43:40;99340.84;;;4.97;54.43
74578;BME280;75151;49.086;33.418;2024-03-25T06:46:06;99333.09;;;4.87;52.95
74578;BME280;75151;49.086;33.418;2024-03-25T06:48:33;99337.25;;;6.41;49.74
74578;BME280;75151;49.086;33.418;2024-03-25T06:51:00;99343.13;;;4.95;52.20
74578;BME280;75151;49.086;33.418;2024-03-25T06:53:28;99342.09;;;4.87;53.25
74578;BME280;75151;49.086;33.418;2024-03-25T06:55:58;99339.25;;;5.65;52.08
74578;BME280;75151;49.086;33.418;2024-03-25T06:58:25;99339.34;;;5.56;51.62
74578;BME280;75151;49.086;33.418;2024-03-25T07:00:52;99343.81;;;5.61;49.81
74578;BME280;75151;49.086;33.418;2024-03-25T07:03:19;99340.69;;;5.38;51.98
74578;BME280;75151;49.086;33.418;2024-03-25T07:05:46;99343.34;;;4.90;52.91
74578;BME280;75151;49.086;33.418;2024-03-25T07:08:15;99347.00;;;4.61;53.60
74578;BME280;75151;49.086;33.418;2024-03-25T07:10:42;99347.50;;;5.08;52.61
74578;BME280;75151;49.086;33.418;2024-03-25T07:13:07;99351.34;;;4.95;53.92
74578;BME280;75151;49.086;33.418;2024-03-25T07:15:33;99340.84;;;4.32;54.72
74578;BME280;75151;49.086;33.418;2024-03-25T07:17:59;99341.28;;;4.99;52.96
74578;BME280;75151;49.086;33.418;2024-03-25T07:20:25;99337.50;;;5.36;52.71
74578;BME280;75151;49.086;33.418;2024-03-25T07:22:55;99342.50;;;5.82;51.83
74578;BME280;75151;49.086;33.418;2024-03-25T07:25:22;99340.94;;;4.88;51.68
74578;BME280;75151;49.086;33.418;2024-03-25T07:27:48;99342.72;;;5.29;52.44
74578;BME280;75151;49.086;33.418;2024-03-25T07:30:16;99339.53;;;6.39;49.49
74578;BME280;75151;49.086;33.418;2024-03-25T07:32:42;99345.91;;;5.31;52.02
74578;BME280;75151;49.086;33.418;2024-03-25T07:35:10;99335.44;;;5.21;51.64
74578;BME280;75151;49.086;33.418;2024-03-25T07:37:37;99331.44;;;4.74;53.10
74578;BME280;75151;49.086;33.418;2024-03-25T07:40:03;99331.28;;;4.91;52.86
74578;BME280;75151;49.086;33.418;2024-03-25T07:42:31;99337.94;;;5.38;51.03
74578;BME280;75151;49.086;33.418;2024-03-25T07:44:57;99328.13;;;5.37;52.46
74578;BME280;75151;49.086;33.418;2024-03-25T07:47:23;99334.22;;;6.19;49.31
74578;BME280;75151;49.086;33.418;2024-03-25T07:49:48;99337.84;;;6.74;48.25
74578;BME280;75151;49.086;33.418;2024-03-25T07:52:14;99335.31;;;6.42;49.47
74578;BME280;75151;49.086;33.418;2024-03-25T07:54:40;99333.28;;;5.75;50.43
74578;BME280;75151;49.086;33.418;2024-03-25T07:57:06;99335.84;;;5.11;52.43
74578;BME280;75151;49.086;33.418;2024-03-25T07:59:31;99330.19;;;5.28;53.20
74578;BME280;75151;49.086;33.418;2024-03-25T08:01:57;99335.13;;;4.78;52.70
74578;BME280;75151;49.086;33.418;2024-03-25T08:04:23;99329.94;;;5.09;51.39
74578;BME280;75151;49.086;33.418;2024-03-25T08:06:48;99331.41;;;5.06;51.89
74578;BME280;75151;49.086;33.418;2024-03-25T08:09:14;99328.31;;;4.63;52.39
74578;BME280;75151;49.086;33.418;2024-03-25T08:11:41;99328.75;;;4.53;53.04
74578;BME280;75151;49.086;33.418;2024-03-25T08:14:10;99318.88;;;6.02;49.48
74578;BME280;75151;49.086;33.418;2024-03-25T08:16:36;99317.97;;;5.14;51.78
74578;BME280;75151;49.086;33.418;2024-03-25T08:19:02;99320.16;;;6.32;49.82
74578;BME280;75151;49.086;33.418;2024-03-25T08:21:27;99320.63;;;5.46;51.73
74578;BME280;75151;49.086;33.418;2024-03-25T08:23:53;99322.47;;;5.54;51.27
74578;BME280;75151;49.086;33.418;2024-03-25T08:26:19;99315.53;;;4.88;52.01
74578;BME280;75151;49.086;33.418;2024-03-25T08:28:45;99312.78;;;5.57;51.27
74578;BME280;75151;49.086;33.418;2024-03-25T08:31:10;99317.13;;;5.46;50.61
74578;BME280;75151;49.086;33.418;2024-03-25T08:33:36;99315.06;;;5.43;49.96
74578;BME280;75151;49.086;33.418;2024-03-25T08:36:02;99310.84;;;5.45;49.77
74578;BME280;75151;49.086;33.418;2024-03-25T08:38:29;99318.59;;;5.43;50.50
74578;BME280;75151;49.086;33.418;2024-03-25T08:40:55;99316.84;;;5.27;50.10
74578;BME280;75151;49.086;33.418;2024-03-25T08:43:20;99312.66;;;5.41;50.20
74578;BME280;75151;49.086;33.418;2024-03-25T08:45:46;99319.72;;;6.18;48.76
74578;BME280;75151;49.086;33.418;2024-03-25T08:48:12;99314.16;;;7.13;46.71
74578;BME280;75151;49.086;33.418;2024-03-25T08:50:38;99304.34;;;6.41;46.21
74578;BME280;75151;49.086;33.418;2024-03-25T08:53:04;99312.22;;;6.43;46.97
74578;BME280;75151;49.086;33.418;2024-03-25T08:55:30;99306.09;;;5.94;47.51
74578;BME280;75151;49.086;33.418;2024-03-25T08:57:59;99316.22;;;6.45;46.54
74578;BME280;75151;49.086;33.418;2024-03-25T09:00:27;99309.00;;;6.25;46.13
74578;BME280;75151;49.086;33.418;2024-03-25T09:02:55;99313.81;;;6.56;45.63
74578;BME280;75151;49.086;33.418;2024-03-25T09:05:21;99314.22;;;6.85;45.60
74578;BME280;75151;49.086;33.418;2024-03-25T09:07:50;99312.94;;;6.95;44.16
74578;BME280;75151;49.086;33.418;2024-03-25T09:10:21;99304.84;;;7.80;42.70
74578;BME280;75151;49.086;33.418;2024-03-25T09:13:05;99310.94;;;7.89;42.83
74578;BME280;75151;49.086;33.418;2024-03-25T09:15:31;99307.06;;;7.74;41.36
74578;BME280;75151;49.086;33.418;2024-03-25T09:17:57;99304.34;;;6.41;43.87
74578;BME280;75151;49.086;33.418;2024-03-25T09:20:23;99300.66;;;7.20;43.96
74578;BME280;75151;49.086;33.418;2024-03-25T09:22:49;99303.72;;;6.60;45.28
74578;BME280;75151;49.086;33.418;2024-03-25T09:25:15;99294.19;;;7.13;43.65
74578;BME280;75151;49.086;33.418;2024-03-25T09:27:46;99292.75;;;6.32;44.80
74578;BME280;75151;49.086;33.418;2024-03-25T09:30:12;99298.19;;;5.65;46.22
74578;BME280;75151;49.086;33.418;2024-03-25T09:32:38;99287.94;;;6.69;44.57
74578;BME280;75151;49.086;33.418;2024-03-25T09:35:04;99291.97;;;7.49;42.10
74578;BME280;75151;49.086;33.418;2024-03-25T09:37:30;99296.13;;;7.28;41.88
74578;BME280;75151;49.086;33.418;2024-03-25T09:39:57;99287.41;;;7.72;41.67
74578;BME280;75151;49.086;33.418;2024-03-25T09:42:34;99290.81;;;7.50;42.37
74578;BME280;75151;49.086;33.418;2024-03-25T09:44:59;99289.38;;;7.25;42.53
74578;BME280;75151;49.086;33.418;2024-03-25T09:47:26;99296.72;;;6.90;43.71
74578;BME280;75151;49.086;33.418;2024-03-25T09:49:54;99286.50;;;6.59;44.83
74578;BME280;75151;49.086;33.418;2024-03-25T09:52:20;99287.63;;;6.86;44.00
74578;BME280;75151;49.086;33.418;2024-03-25T09:54:46;99274.59;;;8.34;41.18
74578;BME280;75151;49.086;33.418;2024-03-25T09:57:12;99267.59;;;6.70;43.79
74578;BME280;75151;49.086;33.418;2024-03-25T09:59:39;99272.25;;;7.78;42.40
74578;BME280;75151;49.086;33.418;2024-03-25T10:02:06;99265.38;;;7.22;42.82
74578;BME280;75151;49.086;33.418;2024-03-25T10:04:40;99274.69;;;7.02;43.47
74578;BME280;75151;49.086;33.418;2024-03-25T10:07:09;99272.75;;;6.87;43.71
74578;BME280;75151;49.086;33.418;2024-03-25T10:09:35;99268.56;;;7.40;43.58
74578;BME280;75151;49.086;33.418;2024-03-25T10:12:01;99259.78;;;7.65;42.51
74578;BME280;75151;49.086;33.418;2024-03-25T10:14:27;99247.16;;;7.80;41.59
74578;BME280;75151;49.086;33.418;2024-03-25T10:16:52;99233.97;;;7.04;43.39
74578;BME280;75151;49.086;33.418;2024-03-25T10:19:18;99240.69;;;7.53;43.70
74578;BME280;75151;49.086;33.418;2024-03-25T10:21:44;99233.28;;;6.91;43.18
74578;BME280;75151;49.086;33.418;2024-03-25T10:24:10;99237.78;;;7.31;43.67
74578;BME280;75151;49.086;33.418;2024-03-25T10:26:36;99222.16;;;8.23;41.84
74578;BME280;75151;49.086;33.418;2024-03-25T10:29:05;99223.81;;;7.05;42.95
74578;BME280;75151;49.086;33.418;2024-03-25T10:31:34;99220.03;;;7.59;42.72
74578;BME280;75151;49.086;33.418;2024-03-25T10:34:00;99220.19;;;7.01;43.77
74578;BME280;75151;49.086;33.418;2024-03-25T10:36:26;99212.09;;;7.39;42.65
74578;BME280;75151;49.086;33.418;2024-03-25T10:38:58;99209.25;;;7.70;42.23
74578;BME280;75151;49.086;33.418;2024-03-25T10:41:28;99205.53;;;7.78;42.48
74578;BME280;75151;49.086;33.418;2024-03-25T10:43:55;99209.72;;;6.32;45.86
74578;BME280;75151;49.086;33.418;2024-03-25T10:46:22;99195.06;;;7.49;42.43
74578;BME280;75151;49.086;33.418;2024-03-25T10:49:01;99198.78;;;7.41;42.62
74578;BME280;75151;49.086;33.418;2024-03-25T10:51:29;99190.59;;;7.25;42.90
74578;BME280;75151;49.086;33.418;2024-03-25T10:53:57;99189.88;;;7.28;43.63
74578;BME280;75151;49.086;33.418;2024-03-25T10:56:23;99184.44;;;7.32;42.09
74578;BME280;75151;49.086;33.418;2024-03-25T10:58:49;99184.03;;;7.64;41.02
74578;BME280;75151;49.086;33.418;2024-03-25T11:01:17;99180.72;;;7.74;41.55
74578;BME280;75151;49.086;33.418;2024-03-25T11:03:45;99181.84;;;7.54;42.00
74578;BME280;75151;49.086;33.418;2024-03-25T11:06:11;99173.84;;;8.22;40.20
74578;BME280;75151;49.086;33.418;2024-03-25T11:08:37;99170.94;;;8.15;40.73
74578;BME280;75151;49.086;33.418;2024-03-25T11:11:05;99171.34;;;9.53;38.47
74578;BME280;75151;49.086;33.418;2024-03-25T11:13:31;99167.59;;;8.44;40.14
74578;BME280;75151;49.086;33.418;2024-03-25T11:15:58;99159.19;;;8.15;40.73
74578;BME280;75151;49.086;33.418;2024-03-25T11:18:25;99159.97;;;7.96;40.56
74578;BME280;75151;49.086;33.418;2024-03-25T11:23:26;99160.31;;;7.56;42.04
74578;BME280;75151;49.086;33.418;2024-03-25T11:25:55;99157.34;;;8.64;39.92
74578;BME280;75151;49.086;33.418;2024-03-25T11:28:29;99151.28;;;7.94;39.70
74578;BME280;75151;49.086;33.418;2024-03-25T11:30:55;99154.47;;;8.38;39.82
74578;BME280;75151;49.086;33.418;2024-03-25T11:33:21;99147.94;;;9.69;36.91
74578;BME280;75151;49.086;33.418;2024-03-25T11:35:51;99159.94;;;9.28;37.65
74578;BME280;75151;49.086;33.418;2024-03-25T11:38:16;99145.16;;;7.81;38.89
74578;BME280;75151;49.086;33.418;2024-03-25T11:40:44;99150.22;;;7.79;39.33
74578;BME280;75151;49.086;33.418;2024-03-25T11:43:17;99143.22;;;8.43;37.94
74578;BME280;75151;49.086;33.418;2024-03-25T11:45:44;99139.31;;;8.25;38.90
74578;BME280;75151;49.086;33.418;2024-03-25T11:48:15;99133.16;;;8.09;39.19
74578;BME280;75151;49.086;33.418;2024-03-25T11:50:40;99134.00;;;8.13;40.35
74578;BME280;75151;49.086;33.418;2024-03-25T11:53:07;99134.50;;;7.07;41.46
74578;BME280;75151;49.086;33.418;2024-03-25T11:55:33;99138.56;;;7.13;41.11
74578;BME280;75151;49.086;33.418;2024-03-25T11:57:59;99139.69;;;7.28;40.75
74578;BME280;75151;49.086;33.418;2024-03-25T12:00:24;99140.97;;;7.34;41.75
74578;BME280;75151;49.086;33.418;2024-03-25T12:02:50;99144.88;;;7.48;41.48
74578;BME280;75151;49.086;33.418;2024-03-25T12:05:18;99136.13;;;8.42;39.20
74578;BME280;75151;49.086;33.418;2024-03-25T12:07:44;99127.97;;;7.65;40.32
74578;BME280;75151;49.086;33.418;2024-03-25T12:10:10;99113.75;;;7.25;41.83
74578;BME280;75151;49.086;33.418;2024-03-25T12:12:55;99114.41;;;8.14;41.40
74578;BME280;75151;49.086;33.418;2024-03-25T12:15:21;99117.25;;;7.99;41.80
74578;BME280;75151;49.086;33.418;2024-03-25T12:17:47;99104.88;;;8.08;41.40
74578;BME280;75151;49.086;33.418;2024-03-25T12:20:14;99115.31;;;8.22;41.38
74578;BME280;75151;49.086;33.418;2024-03-25T12:22:40;99118.72;;;8.15;41.33
74578;BME280;75151;49.086;33.418;2024-03-25T12:25:07;99104.50;;;8.10;40.76
74578;BME280;75151;49.086;33.418;2024-03-25T12:27:34;99107.69;;;7.93;40.77
74578;BME280;75151;49.086;33.418;2024-03-25T12:30:11;99103.41;;;7.38;41.89
74578;BME280;75151;49.086;33.418;2024-03-25T12:32:39;99094.34;;;7.91;40.81
74578;BME280;75151;49.086;33.418;2024-03-25T12:35:10;99093.31;;;7.99;40.19
74578;BME280;75151;49.086;33.418;2024-03-25T12:37:40;99079.59;;;8.22;40.73
74578;BME280;75151;49.086;33.418;2024-03-25T12:40:09;99074.97;;;8.26;40.02
74578;BME280;75151;49.086;33.418;2024-03-25T12:42:35;99069.28;;;7.35;41.43
74578;BME280;75151;49.086;33.418;2024-03-25T12:45:00;99069.56;;;8.10;40.88
74578;BME280;75151;49.086;33.418;2024-03-25T12:47:26;99067.56;;;7.65;40.74
74578;BME280;75151;49.086;33.418;2024-03-25T12:49:52;99074.44;;;7.56;40.84
74578;BME280;75151;49.086;33.418;2024-03-25T12:52:18;99073.94;;;7.69;40.75
74578;BME280;75151;49.086;33.418;2024-03-25T12:54:44;99075.16;;;7.95;40.24
74578;BME280;75151;49.086;33.418;2024-03-25T12:57:11;99066.41;;;8.08;39.96
74578;BME280;75151;49.086;33.418;2024-03-25T12:59:37;99059.78;;;7.48;41.24